createdAt,value
2023-05-09T00:00:47.262Z,62.66
2023-05-09T00:01:48.914Z,62.36
2023-05-09T00:02:51.525Z,62.13
2023-05-09T00:03:53.238Z,62.10
2023-05-09T00:04:55.025Z,62.10
2023-05-09T00:05:56.691Z,61.98
2023-05-09T00:06:58.405Z,61.98
2023-05-09T00:08:00.087Z,62.08
2023-05-09T00:09:01.922Z,62.23
2023-05-09T00:10:04.106Z,62.53
2023-05-09T00:11:05.692Z,62.71
2023-05-09T00:12:08.057Z,63.36
2023-05-09T00:13:09.685Z,63.04
2023-05-09T00:14:13.710Z,63.12
2023-05-09T00:15:15.609Z,63.76
2023-05-09T00:16:17.877Z,64.07
2023-05-09T00:17:19.572Z,63.37
2023-05-09T00:18:22.175Z,63.71
2023-05-09T00:19:23.792Z,63.81
2023-05-09T00:20:25.463Z,63.80
2023-05-09T00:21:28.266Z,63.86
2023-05-09T00:22:29.934Z,63.48
2023-05-09T00:23:31.521Z,63.27
2023-05-09T00:24:33.114Z,63.17
2023-05-09T00:25:34.747Z,63.17
2023-05-09T00:26:36.339Z,63.22
2023-05-09T00:27:38.133Z,63.20
2023-05-09T00:28:39.746Z,63.19
2023-05-09T00:29:41.326Z,63.01
2023-05-09T00:30:42.965Z,63.03
2023-05-09T00:31:44.697Z,63.14
2023-05-09T00:32:46.512Z,63.32
2023-05-09T00:33:48.579Z,63.18
2023-05-09T00:34:50.660Z,63.29
2023-05-09T00:35:53.381Z,63.58
2023-05-09T00:36:55.027Z,63.54
2023-05-09T00:37:56.687Z,64.33
2023-05-09T00:38:58.325Z,64.36
2023-05-09T00:39:59.912Z,64.47
2023-05-09T00:41:01.553Z,64.35
2023-05-09T00:42:03.706Z,64.41
2023-05-09T00:43:05.301Z,64.52
2023-05-09T00:44:07.040Z,64.34
2023-05-09T00:45:09.272Z,64.39
2023-05-09T00:46:11.802Z,64.73
2023-05-09T00:47:13.567Z,64.64
2023-05-09T00:48:15.796Z,64.59
2023-05-09T00:49:17.426Z,64.33
2023-05-09T00:50:19.174Z,64.35
2023-05-09T00:51:20.815Z,64.13
2023-05-09T00:52:25.968Z,64.23
2023-05-09T00:53:27.590Z,63.92
2023-05-09T00:54:29.179Z,64.02
2023-05-09T00:55:31.091Z,64.15
2023-05-09T00:56:32.792Z,64.13
2023-05-09T00:57:34.656Z,64.23
2023-05-09T00:58:36.246Z,64.21
2023-05-09T00:59:37.945Z,65.36
2023-05-09T01:00:39.747Z,65.48
2023-05-09T01:01:41.428Z,64.98
2023-05-09T01:02:53.069Z,64.72
2023-05-09T01:03:54.839Z,65.10
2023-05-09T01:04:56.914Z,65.61
2023-05-09T01:06:11.162Z,64.90
2023-05-09T01:07:22.190Z,64.88
2023-05-09T01:08:45.570Z,65.09
2023-05-09T01:10:02.813Z,65.67
2023-05-09T01:11:11.247Z,65.24
2023-05-09T01:12:42.189Z,65.07
2023-05-09T01:14:02.667Z,65.27
2023-05-09T01:15:28.921Z,64.86
2023-05-09T01:16:38.744Z,65.08
2023-05-09T01:18:04.274Z,64.77
2023-05-09T01:19:09.488Z,65.02
2023-05-09T01:20:35.760Z,66.01
2023-05-09T01:21:37.832Z,65.93
2023-05-09T01:22:43.113Z,65.95
2023-05-09T01:23:44.987Z,66.10
2023-05-09T01:24:58.255Z,66.29
2023-05-09T01:26:06.562Z,66.26
2023-05-09T01:27:44.603Z,66.49
2023-05-09T01:29:23.675Z,66.56
2023-05-09T01:30:26.251Z,66.24
2023-05-09T01:31:27.955Z,66.09
2023-05-09T01:32:30.092Z,66.29
2023-05-09T01:33:32.853Z,66.13
2023-05-09T01:34:35.169Z,66.01
2023-05-09T01:35:37.741Z,66.44
2023-05-09T01:36:40.298Z,66.74
2023-05-09T01:37:43.448Z,66.57
2023-05-09T01:38:45.274Z,66.65
2023-05-09T01:39:49.936Z,66.40
2023-05-09T01:40:53.449Z,66.34
2023-05-09T01:41:55.664Z,66.45
2023-05-09T01:42:58.609Z,66.55
2023-05-09T01:44:01.067Z,66.61
2023-05-09T01:45:02.716Z,66.54
2023-05-09T01:46:05.999Z,66.38
2023-05-09T01:47:07.846Z,66.53
2023-05-09T01:48:09.679Z,66.51
2023-05-09T01:49:11.314Z,66.49
2023-05-09T01:50:13.018Z,66.75
2023-05-09T01:51:14.596Z,66.98
2023-05-09T01:52:16.950Z,66.86
2023-05-09T01:53:18.597Z,66.92
2023-05-09T01:54:20.242Z,67.17
2023-05-09T01:55:22.268Z,67.17
2023-05-09T01:56:23.872Z,67.02
2023-05-09T01:57:25.530Z,67.23
2023-05-09T01:58:27.213Z,67.41
2023-05-09T01:59:28.883Z,67.32
2023-05-09T02:00:30.740Z,67.50
2023-05-09T02:01:32.354Z,67.56
2023-05-09T02:02:34.099Z,67.47
2023-05-09T02:03:36.768Z,67.63
2023-05-09T02:04:38.417Z,67.46
2023-05-09T02:05:40.061Z,67.53
2023-05-09T02:06:41.956Z,67.35
2023-05-09T02:07:43.601Z,67.49
2023-05-09T02:08:45.398Z,67.61
2023-05-09T02:09:46.992Z,67.75
2023-05-09T02:10:49.368Z,67.82
2023-05-09T02:11:51.016Z,67.70
2023-05-09T02:12:53.247Z,67.70
2023-05-09T02:13:55.188Z,67.63
2023-05-09T02:14:56.819Z,67.61
2023-05-09T02:15:58.402Z,67.44
2023-05-09T02:17:06.260Z,67.26
2023-05-09T02:18:07.987Z,67.49
2023-05-09T02:19:09.696Z,67.62
2023-05-09T02:20:11.678Z,68.01
2023-05-09T02:21:13.343Z,67.70
2023-05-09T02:22:14.958Z,67.52
2023-05-09T02:23:16.621Z,67.33
2023-05-09T02:24:18.221Z,67.26
2023-05-09T02:25:19.867Z,67.70
2023-05-09T02:26:22.285Z,67.53
2023-05-09T02:27:23.965Z,67.48
2023-05-09T02:28:25.924Z,67.25
2023-05-09T02:29:31.008Z,67.29
2023-05-09T02:30:35.648Z,67.38
2023-05-09T02:31:37.369Z,67.36
2023-05-09T02:32:39.140Z,67.75
2023-05-09T02:33:40.755Z,67.71
2023-05-09T02:34:42.454Z,67.75
2023-05-09T02:35:46.652Z,67.61
2023-05-09T02:36:48.330Z,67.75
2023-05-09T02:37:50.091Z,67.72
2023-05-09T02:38:51.742Z,67.75
2023-05-09T02:39:53.380Z,67.72
2023-05-09T02:40:55.071Z,67.59
2023-05-09T02:41:56.698Z,67.58
2023-05-09T02:42:58.405Z,67.81
2023-05-09T02:43:59.984Z,67.58
2023-05-09T02:45:01.595Z,67.69
2023-05-09T02:46:03.192Z,68.19
2023-05-09T02:47:05.865Z,68.24
2023-05-09T02:48:08.713Z,68.67
2023-05-09T02:49:16.821Z,68.90
2023-05-09T02:50:25.129Z,69.11
2023-05-09T02:51:26.714Z,68.85
2023-05-09T02:52:28.304Z,68.87
2023-05-09T02:53:29.970Z,68.65
2023-05-09T02:54:31.572Z,68.50
2023-05-09T02:55:33.199Z,68.54
2023-05-09T02:56:34.793Z,68.73
2023-05-09T02:57:36.894Z,68.76
2023-05-09T02:58:38.504Z,68.74
2023-05-09T02:59:40.099Z,68.65
2023-05-09T03:00:41.925Z,69.07
2023-05-09T03:01:43.575Z,68.93
2023-05-09T03:02:45.330Z,69.52
2023-05-09T03:03:47.143Z,69.49
2023-05-09T03:04:48.826Z,69.78
2023-05-09T03:05:50.410Z,69.47
2023-05-09T03:06:52.234Z,69.25
2023-05-09T03:07:53.972Z,69.41
2023-05-09T03:08:55.746Z,69.23
2023-05-09T03:09:57.429Z,69.35
2023-05-09T03:10:59.063Z,69.64
2023-05-09T03:12:00.658Z,69.51
2023-05-09T03:13:02.315Z,69.52
2023-05-09T03:14:04.578Z,69.84
2023-05-09T03:15:07.223Z,70.15
2023-05-09T03:16:09.315Z,70.02
2023-05-09T03:17:11.052Z,70.26
2023-05-09T03:18:12.725Z,70.28
2023-05-09T03:19:14.422Z,70.17
2023-05-09T03:20:16.019Z,70.09
2023-05-09T03:21:17.907Z,70.05
2023-05-09T03:22:19.474Z,70.01
2023-05-09T03:23:21.087Z,70.05
2023-05-09T03:24:23.199Z,70.08
2023-05-09T03:25:26.476Z,70.07
2023-05-09T03:26:28.089Z,70.49
2023-05-09T03:27:29.734Z,69.82
2023-05-09T03:28:31.565Z,70.10
2023-05-09T03:29:33.569Z,69.95
2023-05-09T03:30:35.157Z,69.92
2023-05-09T03:31:36.777Z,69.75
2023-05-09T03:32:39.119Z,69.68
2023-05-09T03:33:40.866Z,70.56
2023-05-09T03:34:42.513Z,69.48
2023-05-09T03:35:44.216Z,69.29
2023-05-09T03:36:46.118Z,69.61
2023-05-09T03:37:47.688Z,69.51
2023-05-09T03:38:49.293Z,69.30
2023-05-09T03:39:51.205Z,69.77
2023-05-09T03:40:53.904Z,69.80
2023-05-09T03:41:55.589Z,69.59
2023-05-09T03:42:57.179Z,69.46
2023-05-09T03:43:58.798Z,68.97
2023-05-09T03:45:00.549Z,69.39
2023-05-09T03:46:02.126Z,68.79
2023-05-09T03:47:03.914Z,68.62
2023-05-09T03:48:08.589Z,69.05
2023-05-09T03:49:10.254Z,69.04
2023-05-09T03:50:11.910Z,69.08
2023-05-09T03:51:13.486Z,69.22
2023-05-09T03:52:15.071Z,69.04
2023-05-09T03:53:16.715Z,69.32
2023-05-09T03:54:18.343Z,69.44
2023-05-09T03:55:20.120Z,69.34
2023-05-09T03:56:22.491Z,69.27
2023-05-09T03:57:24.096Z,69.04
2023-05-09T03:58:26.000Z,69.45
2023-05-09T03:59:27.606Z,69.49
2023-05-09T04:00:29.235Z,69.38
2023-05-09T04:01:31.065Z,69.64
2023-05-09T04:02:35.658Z,69.16
2023-05-09T04:03:37.852Z,69.56
2023-05-09T04:04:39.592Z,69.07
2023-05-09T04:05:41.197Z,68.88
2023-05-09T04:06:42.780Z,68.96
2023-05-09T04:07:44.468Z,69.05
2023-05-09T04:08:46.296Z,68.88
2023-05-09T04:09:48.073Z,68.54
2023-05-09T04:10:50.359Z,68.73
2023-05-09T04:11:52.067Z,68.51
2023-05-09T04:12:53.741Z,68.45
2023-05-09T04:13:55.422Z,68.47
2023-05-09T04:14:57.125Z,67.09
2023-05-09T04:15:58.740Z,67.37
2023-05-09T04:17:00.459Z,67.34
2023-05-09T04:18:02.204Z,67.55
2023-05-09T04:19:03.864Z,67.32
2023-05-09T04:20:08.049Z,67.81
2023-05-09T04:21:09.674Z,67.02
2023-05-09T04:22:11.302Z,66.61
2023-05-09T04:23:12.962Z,64.99
2023-05-09T04:24:14.617Z,64.83
2023-05-09T04:25:17.110Z,65.33
2023-05-09T04:26:19.091Z,65.54
2023-05-09T04:27:21.037Z,65.98
2023-05-09T04:28:22.663Z,65.69
2023-05-09T04:29:24.319Z,65.57
2023-05-09T04:30:28.757Z,65.75
2023-05-09T04:31:31.416Z,65.18
2023-05-09T04:32:33.641Z,64.99
2023-05-09T04:33:36.117Z,64.82
2023-05-09T04:34:37.708Z,64.03
2023-05-09T04:35:39.431Z,64.06
2023-05-09T04:36:41.174Z,63.66
2023-05-09T04:37:42.860Z,62.97
2023-05-09T04:38:44.468Z,62.72
2023-05-09T04:39:46.188Z,62.89
2023-05-09T04:40:47.898Z,62.89
2023-05-09T04:41:49.976Z,62.52
2023-05-09T04:42:51.712Z,61.62
2023-05-09T04:43:53.272Z,61.11
2023-05-09T04:44:54.928Z,61.33
2023-05-09T04:45:56.574Z,60.85
2023-05-09T04:46:58.204Z,60.79
2023-05-09T04:47:59.838Z,60.33
2023-05-09T04:49:01.764Z,59.96
2023-05-09T04:50:03.659Z,59.69
2023-05-09T04:51:05.272Z,60.21
2023-05-09T04:52:07.267Z,60.32
2023-05-09T04:53:09.155Z,60.35
2023-05-09T04:54:10.749Z,61.12
2023-05-09T04:55:12.575Z,61.20
2023-05-09T04:56:14.328Z,61.09
2023-05-09T04:57:18.590Z,60.67
2023-05-09T04:58:20.742Z,60.65
2023-05-09T04:59:22.409Z,60.54
2023-05-09T05:00:24.025Z,60.23
2023-05-09T05:01:26.747Z,60.51
2023-05-09T05:02:28.517Z,60.60
2023-05-09T05:03:30.199Z,61.20
2023-05-09T05:04:31.950Z,61.01
2023-05-09T05:05:35.263Z,59.97
2023-05-09T05:06:38.656Z,59.47
2023-05-09T05:07:40.559Z,59.14
2023-05-09T05:08:42.320Z,58.32
2023-05-09T05:09:43.976Z,57.38
2023-05-09T05:10:45.634Z,57.41
2023-05-09T05:11:57.840Z,56.93
2023-05-09T05:13:01.674Z,56.03
2023-05-09T05:14:03.338Z,55.40
2023-05-09T05:15:05.522Z,54.79
2023-05-09T05:16:07.257Z,54.69
2023-05-09T05:17:08.867Z,53.49
2023-05-09T05:18:10.736Z,53.76
2023-05-09T05:19:12.340Z,54.00
2023-05-09T05:20:14.146Z,53.83
2023-05-09T05:21:16.464Z,53.88
2023-05-09T05:22:18.140Z,54.15
2023-05-09T05:23:19.745Z,54.20
2023-05-09T05:24:21.371Z,52.88
2023-05-09T05:25:23.089Z,51.53
2023-05-09T05:26:25.708Z,52.08
2023-05-09T05:27:27.289Z,51.17
2023-05-09T05:28:28.849Z,50.24
2023-05-09T05:29:30.420Z,49.27
2023-05-09T05:30:34.230Z,48.69
2023-05-09T05:31:36.549Z,49.94
2023-05-09T05:32:38.374Z,48.78
2023-05-09T05:33:40.001Z,49.51
2023-05-09T05:34:41.583Z,50.36
2023-05-09T05:35:43.166Z,51.70
2023-05-09T05:36:44.800Z,51.44
2023-05-09T05:37:48.927Z,51.86
2023-05-09T05:38:51.670Z,52.41
2023-05-09T05:39:53.272Z,52.89
2023-05-09T05:40:54.850Z,53.29
2023-05-09T05:41:56.547Z,53.72
2023-05-09T05:42:58.213Z,54.12
2023-05-09T05:43:59.802Z,54.83
2023-05-09T05:45:04.410Z,54.04
2023-05-09T05:46:06.227Z,54.69
2023-05-09T05:47:07.832Z,54.82
2023-05-09T05:48:09.513Z,54.77
2023-05-09T05:49:11.165Z,54.38
2023-05-09T05:50:13.045Z,54.97
2023-05-09T05:51:14.640Z,54.75
2023-05-09T05:52:16.351Z,55.48
2023-05-09T05:53:18.015Z,56.23
2023-05-09T05:54:19.694Z,55.59
2023-05-09T05:55:21.490Z,54.77
2023-05-09T05:56:23.071Z,55.46
2023-05-09T05:57:24.666Z,54.02
2023-05-09T05:58:26.700Z,54.20
2023-05-09T05:59:28.265Z,53.18
2023-05-09T06:00:30.188Z,53.28
2023-05-09T06:01:31.789Z,52.77
2023-05-09T06:02:33.651Z,53.12
2023-05-09T06:03:35.489Z,52.73
2023-05-09T06:04:37.183Z,52.99
2023-05-09T06:05:38.743Z,52.72
2023-05-09T06:06:40.377Z,51.57
2023-05-09T06:07:42.600Z,52.04
2023-05-09T06:08:44.342Z,52.22
2023-05-09T06:09:46.125Z,52.28
2023-05-09T06:10:47.719Z,51.84
2023-05-09T06:11:49.284Z,52.01
2023-05-09T06:12:50.920Z,52.31
2023-05-09T06:13:52.576Z,51.99
2023-05-09T06:14:54.163Z,51.56
2023-05-09T06:16:01.986Z,51.30
2023-05-09T06:17:06.608Z,51.37
2023-05-09T06:18:09.077Z,51.21
2023-05-09T06:19:10.801Z,51.03
2023-05-09T06:20:12.483Z,51.05
2023-05-09T06:21:14.133Z,50.99
2023-05-09T06:22:15.734Z,50.34
2023-05-09T06:23:22.132Z,50.88
2023-05-09T06:24:35.113Z,50.45
2023-05-09T06:25:37.956Z,49.88
2023-05-09T06:26:39.597Z,50.05
2023-05-09T06:27:41.183Z,50.45
2023-05-09T06:28:42.809Z,50.09
2023-05-09T06:29:44.378Z,50.23
2023-05-09T06:30:46.054Z,50.92
2023-05-09T06:31:47.765Z,50.05
2023-05-09T06:32:49.419Z,50.37
2023-05-09T06:33:51.018Z,50.12
2023-05-09T06:34:52.914Z,49.84
2023-05-09T06:35:54.596Z,50.09
2023-05-09T06:36:56.194Z,50.00
2023-05-09T06:37:57.809Z,50.15
2023-05-09T06:38:59.850Z,50.10
2023-05-09T06:40:01.557Z,50.14
2023-05-09T06:41:03.188Z,50.36
2023-05-09T06:42:04.795Z,50.80
2023-05-09T06:43:06.545Z,50.35
2023-05-09T06:44:08.253Z,50.27
2023-05-09T06:45:10.464Z,50.99
2023-05-09T06:46:12.206Z,50.16
2023-05-09T06:47:13.802Z,50.18
2023-05-09T06:48:15.383Z,50.53
2023-05-09T06:49:16.990Z,50.71
2023-05-09T06:50:18.689Z,50.19
2023-05-09T06:51:20.390Z,50.03
2023-05-09T06:52:21.972Z,50.33
2023-05-09T06:53:23.537Z,49.90
2023-05-09T06:54:25.213Z,49.94
2023-05-09T06:55:26.828Z,49.95
2023-05-09T06:56:28.501Z,50.28
2023-05-09T06:57:30.344Z,49.88
2023-05-09T06:58:31.929Z,49.40
2023-05-09T06:59:33.780Z,49.90
2023-05-09T07:00:35.781Z,49.65
2023-05-09T07:01:37.416Z,49.89
2023-05-09T07:02:42.043Z,49.29
2023-05-09T07:03:44.289Z,50.12
2023-05-09T07:04:45.997Z,50.33
2023-05-09T07:05:47.615Z,49.65
2023-05-09T07:06:49.265Z,49.20
2023-05-09T07:07:51.296Z,50.05
2023-05-09T07:08:53.116Z,49.54
2023-05-09T07:10:00.696Z,49.18
2023-05-09T07:11:09.314Z,49.59
2023-05-09T07:12:10.934Z,48.59
2023-05-09T07:13:13.587Z,49.17
2023-05-09T07:14:15.454Z,48.91
2023-05-09T07:15:28.705Z,48.30
2023-05-09T07:16:38.727Z,49.17
2023-05-09T07:17:40.494Z,48.57
2023-05-09T07:18:42.145Z,48.56
2023-05-09T07:19:43.768Z,49.31
2023-05-09T07:20:45.407Z,49.63
2023-05-09T07:21:47.048Z,49.08
2023-05-09T07:22:48.797Z,48.73
2023-05-09T07:23:50.534Z,48.91
2023-05-09T07:24:52.127Z,48.19
2023-05-09T07:25:59.618Z,48.81
2023-05-09T07:27:03.958Z,48.06
2023-05-09T07:28:05.844Z,47.68
2023-05-09T07:29:07.420Z,47.42
2023-05-09T07:30:09.478Z,47.58
2023-05-09T07:31:11.161Z,48.70
2023-05-09T07:32:12.833Z,49.30
2023-05-09T07:33:14.624Z,49.30
2023-05-09T07:34:16.862Z,49.57
2023-05-09T07:35:19.324Z,49.39
2023-05-09T07:36:20.982Z,48.73
2023-05-09T07:37:22.603Z,48.46
2023-05-09T07:38:24.286Z,48.67
2023-05-09T07:39:25.864Z,48.98
2023-05-09T07:40:27.500Z,48.85
2023-05-09T07:41:29.093Z,48.56
2023-05-09T07:42:32.709Z,48.74
2023-05-09T07:43:34.300Z,48.70
2023-05-09T07:44:35.912Z,48.55
2023-05-09T07:45:37.489Z,48.33
2023-05-09T07:46:41.012Z,48.57
2023-05-09T07:47:42.636Z,48.52
2023-05-09T07:48:44.329Z,48.91
2023-05-09T07:49:46.691Z,47.47
2023-05-09T07:50:48.264Z,48.08
2023-05-09T07:51:49.836Z,47.43
2023-05-09T07:52:52.789Z,47.92
2023-05-09T07:53:56.236Z,47.61
2023-05-09T07:54:57.862Z,47.94
2023-05-09T07:55:59.605Z,48.08
2023-05-09T07:57:01.170Z,48.65
2023-05-09T07:58:02.930Z,48.85
2023-05-09T07:59:04.623Z,47.33
2023-05-09T08:00:07.372Z,47.49
2023-05-09T08:01:08.978Z,47.65
2023-05-09T08:02:10.738Z,47.95
2023-05-09T08:03:12.556Z,48.52
2023-05-09T08:04:14.367Z,47.89
2023-05-09T08:05:16.416Z,48.34
2023-05-09T08:06:18.199Z,48.01
2023-05-09T08:07:19.821Z,48.42
2023-05-09T08:08:21.795Z,48.88
2023-05-09T08:09:23.753Z,47.83
2023-05-09T08:10:26.776Z,48.28
2023-05-09T08:11:28.368Z,47.69
2023-05-09T08:12:30.038Z,47.89
2023-05-09T08:13:31.653Z,47.77
2023-05-09T08:14:33.381Z,47.25
2023-05-09T08:15:35.021Z,47.98
2023-05-09T08:16:36.825Z,47.83
2023-05-09T08:17:38.587Z,48.03
2023-05-09T08:18:40.271Z,48.26
2023-05-09T08:19:41.916Z,48.62
2023-05-09T08:20:43.662Z,49.87
2023-05-09T08:21:45.655Z,49.46
2023-05-09T08:22:47.289Z,49.75
2023-05-09T08:23:48.935Z,49.37
2023-05-09T08:24:50.596Z,48.74
2023-05-09T08:25:55.401Z,48.07
2023-05-09T08:26:57.009Z,48.09
2023-05-09T08:27:58.582Z,48.76
2023-05-09T08:29:00.892Z,48.27
2023-05-09T08:30:02.613Z,47.98
2023-05-09T08:31:04.331Z,47.49
2023-05-09T08:32:06.039Z,47.11
2023-05-09T08:33:07.718Z,46.71
2023-05-09T08:34:09.434Z,46.93
2023-05-09T08:35:11.124Z,46.84
2023-05-09T08:36:12.729Z,47.04
2023-05-09T08:37:15.500Z,46.82
2023-05-09T08:38:17.295Z,47.28
2023-05-09T08:39:19.384Z,48.25
2023-05-09T08:40:21.386Z,46.69
2023-05-09T08:41:26.468Z,47.36
2023-05-09T08:42:28.120Z,46.83
2023-05-09T08:43:29.784Z,46.28
2023-05-09T08:44:31.809Z,46.46
2023-05-09T08:45:35.773Z,47.35
2023-05-09T08:46:39.266Z,46.99
2023-05-09T08:47:41.635Z,46.75
2023-05-09T08:48:43.223Z,46.23
2023-05-09T08:49:45.579Z,47.39
2023-05-09T08:50:47.307Z,47.09
2023-05-09T08:51:48.917Z,47.50
2023-05-09T08:52:51.740Z,47.26
2023-05-09T08:53:53.402Z,46.19
2023-05-09T08:54:55.042Z,46.15
2023-05-09T08:55:56.709Z,46.39
2023-05-09T08:56:58.301Z,45.78
2023-05-09T08:57:59.942Z,46.14
2023-05-09T08:59:01.804Z,46.82
2023-05-09T09:00:06.434Z,47.68
2023-05-09T09:01:08.211Z,47.64
2023-05-09T09:02:12.421Z,47.13
2023-05-09T09:03:14.100Z,46.77
2023-05-09T09:04:15.996Z,46.57
2023-05-09T09:05:39.421Z,46.06
2023-05-09T09:06:40.582Z,46.45
2023-05-09T09:07:42.215Z,46.69
2023-05-09T09:08:44.372Z,46.81
2023-05-09T09:09:48.904Z,47.34
2023-05-09T09:10:50.622Z,46.25
2023-05-09T09:11:53.353Z,45.62
2023-05-09T09:12:56.999Z,46.16
2023-05-09T09:14:01.819Z,45.61
2023-05-09T09:15:04.841Z,45.75
2023-05-09T09:16:06.622Z,46.08
2023-05-09T09:17:09.113Z,46.45
2023-05-09T09:18:17.147Z,45.60
2023-05-09T09:19:18.869Z,44.58
2023-05-09T09:20:20.597Z,45.18
2023-05-09T09:21:23.466Z,44.95
2023-05-09T09:22:25.155Z,44.78
2023-05-09T09:23:27.382Z,44.34
2023-05-09T09:24:29.502Z,44.81
2023-05-09T09:25:31.196Z,44.76
2023-05-09T09:26:32.889Z,44.12
2023-05-09T09:27:35.632Z,44.58
2023-05-09T09:28:37.292Z,44.56
2023-05-09T09:29:38.893Z,44.68
2023-05-09T09:30:44.929Z,44.02
2023-05-09T09:31:47.135Z,44.36
2023-05-09T09:32:48.824Z,44.08
2023-05-09T09:33:51.142Z,44.48
2023-05-09T09:34:52.757Z,44.01
2023-05-09T09:35:55.556Z,44.77
2023-05-09T09:36:57.338Z,44.09
2023-05-09T09:38:00.253Z,44.56
2023-05-09T09:39:04.825Z,43.65
2023-05-09T09:40:10.655Z,42.14
2023-05-09T09:41:12.552Z,43.48
2023-05-09T09:42:14.368Z,44.43
2023-05-09T09:43:16.038Z,44.06
2023-05-09T09:44:19.134Z,44.05
2023-05-09T09:45:20.905Z,43.72
2023-05-09T09:46:22.680Z,43.05
2023-05-09T09:47:33.710Z,42.84
2023-05-09T09:48:35.572Z,42.57
2023-05-09T09:49:37.211Z,43.19
2023-05-09T09:50:38.785Z,43.11
2023-05-09T09:51:41.276Z,41.72
2023-05-09T09:52:58.416Z,43.14
2023-05-09T09:54:02.302Z,43.94
2023-05-09T09:55:04.735Z,43.02
2023-05-09T09:56:06.628Z,42.53
2023-05-09T09:57:08.313Z,41.61
2023-05-09T09:58:17.222Z,42.49
2023-05-09T09:59:21.555Z,40.31
2023-05-09T10:00:30.313Z,41.77
2023-05-09T10:01:31.991Z,41.84
2023-05-09T10:02:33.801Z,42.36
2023-05-09T10:03:39.195Z,42.33
2023-05-09T10:04:42.712Z,42.92
2023-05-09T10:05:44.409Z,41.90
2023-05-09T10:06:55.929Z,44.22
2023-05-09T10:08:01.585Z,43.03
2023-05-09T10:09:03.394Z,43.81
2023-05-09T10:10:06.357Z,43.24
2023-05-09T10:11:08.048Z,44.23
2023-05-09T10:12:09.667Z,42.18
2023-05-09T10:13:12.111Z,42.18
2023-05-09T10:14:13.823Z,41.33
2023-05-09T10:15:18.798Z,41.38
2023-05-09T10:16:25.943Z,41.43
2023-05-09T10:17:38.028Z,41.92
2023-05-09T10:18:39.942Z,41.43
2023-05-09T10:19:45.918Z,41.72
2023-05-09T10:20:47.502Z,40.74
2023-05-09T10:21:53.524Z,40.55
2023-05-09T10:22:57.347Z,41.35
2023-05-09T10:23:59.385Z,41.05
2023-05-09T10:25:06.577Z,41.17
2023-05-09T10:26:19.153Z,40.77
2023-05-09T10:27:22.387Z,41.73
2023-05-09T10:28:26.320Z,40.31
2023-05-09T10:29:28.014Z,40.67
2023-05-09T10:30:34.233Z,41.62
2023-05-09T10:31:36.039Z,40.12
2023-05-09T10:32:42.454Z,39.48
2023-05-09T10:33:47.939Z,39.42
2023-05-09T10:34:51.648Z,38.50
2023-05-09T10:35:53.280Z,38.19
2023-05-09T10:36:55.466Z,39.99
2023-05-09T10:37:57.671Z,40.66
2023-05-09T10:38:59.309Z,41.60
2023-05-09T10:40:05.083Z,40.95
2023-05-09T10:41:06.793Z,41.56
2023-05-09T10:42:08.405Z,41.68
2023-05-09T10:43:10.036Z,41.41
2023-05-09T10:44:11.616Z,41.96
2023-05-09T10:45:13.781Z,41.67
2023-05-09T10:46:15.824Z,41.39
2023-05-09T10:47:17.815Z,41.99
2023-05-09T10:48:19.410Z,42.31
2023-05-09T10:49:21.000Z,42.33
2023-05-09T10:50:22.695Z,42.46
2023-05-09T10:51:24.623Z,42.73
2023-05-09T10:52:31.288Z,43.15
2023-05-09T10:53:43.850Z,43.41
2023-05-09T10:54:45.537Z,42.52
2023-05-09T10:55:47.483Z,41.76
2023-05-09T10:56:49.127Z,41.48
2023-05-09T10:57:53.392Z,41.61
2023-05-09T10:58:55.119Z,41.92
2023-05-09T10:59:57.182Z,41.88
2023-05-09T11:00:59.791Z,41.00
2023-05-09T11:02:03.111Z,41.78
2023-05-09T11:03:08.039Z,41.97
2023-05-09T11:04:14.562Z,42.11
2023-05-09T11:05:22.591Z,41.37
2023-05-09T11:06:49.382Z,41.13
2023-05-09T11:08:21.117Z,42.07
2023-05-09T11:09:33.422Z,42.25
2023-05-09T11:10:42.538Z,41.60
2023-05-09T11:11:57.264Z,41.67
2023-05-09T11:12:59.830Z,41.80
2023-05-09T11:14:01.499Z,41.78
2023-05-09T11:15:07.879Z,42.89
2023-05-09T11:16:10.192Z,42.81
2023-05-09T11:17:20.970Z,42.63
2023-05-09T11:18:22.558Z,41.62
2023-05-09T11:19:59.313Z,40.92
2023-05-09T11:21:07.693Z,41.82
2023-05-09T11:22:17.277Z,41.32
2023-05-09T11:23:19.214Z,40.99
2023-05-09T11:24:20.805Z,41.37
2023-05-09T11:25:26.020Z,40.93
2023-05-09T11:26:30.127Z,41.72
2023-05-09T11:27:58.647Z,41.16
2023-05-09T11:29:00.263Z,41.07
2023-05-09T11:30:04.965Z,40.89
2023-05-09T11:31:16.607Z,41.04
2023-05-09T11:32:18.314Z,41.21
2023-05-09T11:33:27.368Z,41.81
2023-05-09T11:34:29.511Z,41.90
2023-05-09T11:35:31.386Z,42.14
2023-05-09T11:36:33.834Z,42.04
2023-05-09T11:38:01.753Z,41.46
2023-05-09T11:39:06.825Z,41.73
2023-05-09T11:40:09.431Z,41.47
2023-05-09T11:41:11.132Z,41.54
2023-05-09T11:42:12.728Z,41.35
2023-05-09T11:43:14.373Z,40.76
2023-05-09T11:44:20.065Z,41.92
2023-05-09T11:45:22.452Z,41.21
2023-05-09T11:46:24.102Z,41.64
2023-05-09T11:47:26.423Z,41.48
2023-05-09T11:48:28.146Z,42.20
2023-05-09T11:49:29.874Z,42.00
2023-05-09T11:50:31.638Z,41.93
2023-05-09T11:51:38.341Z,41.85
2023-05-09T11:52:40.171Z,41.55
2023-05-09T11:53:47.252Z,40.79
2023-05-09T11:54:49.745Z,40.80
2023-05-09T11:55:51.477Z,40.91
2023-05-09T11:56:53.098Z,40.78
2023-05-09T11:57:54.885Z,42.00
2023-05-09T11:58:56.839Z,39.79
2023-05-09T12:00:00.325Z,40.02
2023-05-09T12:01:02.204Z,39.91
2023-05-09T12:02:07.008Z,40.86
2023-05-09T12:03:08.827Z,40.85
2023-05-09T12:04:10.674Z,41.20
2023-05-09T12:05:16.990Z,40.95
2023-05-09T12:06:19.161Z,40.79
2023-05-09T12:07:20.811Z,40.80
2023-05-09T12:08:24.438Z,40.77
2023-05-09T12:09:29.785Z,41.75
2023-05-09T12:10:31.554Z,41.95
2023-05-09T12:11:35.032Z,42.25
2023-05-09T12:12:37.222Z,42.69
2023-05-09T12:13:48.782Z,42.73
2023-05-09T12:14:50.391Z,43.10
2023-05-09T12:15:52.295Z,43.32
2023-05-09T12:16:53.982Z,43.11
2023-05-09T12:18:05.854Z,43.88
2023-05-09T12:19:07.589Z,43.43
2023-05-09T12:20:09.541Z,42.84
2023-05-09T12:21:12.278Z,42.04
2023-05-09T12:22:13.864Z,42.68
2023-05-09T12:23:15.833Z,42.39
2023-05-09T12:24:21.746Z,42.07
2023-05-09T12:25:23.425Z,41.87
2023-05-09T12:26:25.630Z,42.51
2023-05-09T12:27:29.047Z,41.96
2023-05-09T12:28:30.920Z,42.27
2023-05-09T12:29:32.565Z,42.53
2023-05-09T12:30:34.279Z,43.05
2023-05-09T12:31:35.949Z,42.46
2023-05-09T12:32:39.608Z,42.10
2023-05-09T12:33:41.316Z,42.48
2023-05-09T12:34:45.570Z,42.01
2023-05-09T12:35:48.012Z,42.23
2023-05-09T12:36:53.241Z,41.29
2023-05-09T12:37:56.506Z,42.01
2023-05-09T12:38:58.730Z,41.30
2023-05-09T12:40:07.219Z,41.20
2023-05-09T12:41:18.873Z,41.63
2023-05-09T12:42:32.368Z,41.32
2023-05-09T12:43:34.757Z,40.98
2023-05-09T12:44:36.644Z,41.29
2023-05-09T12:45:39.240Z,41.96
2023-05-09T12:46:41.358Z,42.37
2023-05-09T12:47:43.104Z,42.91
2023-05-09T12:48:44.819Z,42.33
2023-05-09T12:49:49.332Z,42.97
2023-05-09T12:50:51.477Z,42.74
2023-05-09T12:51:53.794Z,43.77
2023-05-09T12:53:02.713Z,43.62
2023-05-09T12:54:05.392Z,43.43
2023-05-09T12:55:11.427Z,42.25
2023-05-09T12:56:20.401Z,43.82
2023-05-09T12:57:28.816Z,42.62
2023-05-09T12:58:32.850Z,43.11
2023-05-09T12:59:34.573Z,42.21
2023-05-09T13:00:43.800Z,42.74
2023-05-09T13:01:45.499Z,42.18
2023-05-09T13:02:50.856Z,39.84
2023-05-09T13:03:53.315Z,40.18
2023-05-09T13:05:08.263Z,40.40
2023-05-09T13:06:13.813Z,40.90
2023-05-09T13:07:15.446Z,41.18
2023-05-09T13:08:17.042Z,41.58
2023-05-09T13:09:18.940Z,41.66
2023-05-09T13:10:23.968Z,41.94
2023-05-09T13:11:25.983Z,41.07
2023-05-09T13:12:27.586Z,41.38
2023-05-09T13:13:29.309Z,41.38
2023-05-09T13:14:31.176Z,42.30
2023-05-09T13:15:33.831Z,42.61
2023-05-09T13:16:35.459Z,42.18
2023-05-09T13:17:37.241Z,42.13
2023-05-09T13:18:38.883Z,42.28
2023-05-09T13:19:40.520Z,42.60
2023-05-09T13:20:42.166Z,42.29
2023-05-09T13:21:44.218Z,40.62
2023-05-09T13:22:46.057Z,41.32
2023-05-09T13:23:50.059Z,41.88
2023-05-09T13:24:52.018Z,42.09
2023-05-09T13:25:53.741Z,42.45
2023-05-09T13:26:55.373Z,41.59
2023-05-09T13:27:56.959Z,42.05
2023-05-09T13:28:58.686Z,41.73
2023-05-09T13:30:00.266Z,42.02
2023-05-09T13:31:02.973Z,41.51
2023-05-09T13:32:04.884Z,42.07
2023-05-09T13:33:23.977Z,41.87
2023-05-09T13:34:27.287Z,42.34